sensor_id;sensor_type;location;lat;lon;timestamp;P1;durP1;ratioP1;P2;durP2;ratioP2
6007;SDS011;3032;49.484;11.112;2023-09-19T00:01:20;3.80;;;2.40;;
6007;SDS011;3032;49.484;11.112;2023-09-19T00:03:46;2.23;;;2.07;;
6007;SDS011;3032;49.484;11.112;2023-09-19T00:06:11;6.13;;;3.60;;
6007;SDS011;3032;49.484;11.112;2023-09-19T00:08:40;6.53;;;2.67;;
6007;SDS011;3032;49.484;11.112;2023-09-19T00:11:09;6.55;;;2.28;;
6007;SDS011;3032;49.484;11.112;2023-09-19T00:13:36;2.65;;;2.47;;
6007;SDS011;3032;49.484;11.112;2023-09-19T00:16:01;6.03;;;2.83;;
6007;SDS011;3032;49.484;11.112;2023-09-19T00:18:35;3.33;;;3.03;;
6007;SDS011;3032;49.484;11.112;2023-09-19T00:21:01;6.25;;;2.92;;
6007;SDS011;3032;49.484;11.112;2023-09-19T00:23:29;5.90;;;3.30;;
6007;SDS011;3032;49.484;11.112;2023-09-19T00:25:59;3.38;;;2.50;;
6007;SDS011;3032;49.484;11.112;2023-09-19T00:28:26;3.65;;;3.30;;
6007;SDS011;3032;49.484;11.112;2023-09-19T00:30:52;3.97;;;3.00;;
6007;SDS011;3032;49.484;11.112;2023-09-19T00:33:19;3.85;;;3.40;;
6007;SDS011;3032;49.484;11.112;2023-09-19T00:38:17;3.50;;;3.20;;
6007;SDS011;3032;49.484;11.112;2023-09-19T00:40:46;5.25;;;3.42;;
6007;SDS011;3032;49.484;11.112;2023-09-19T00:43:13;3.33;;;3.08;;
6007;SDS011;3032;49.484;11.112;2023-09-19T00:45:39;3.20;;;2.80;;
6007;SDS011;3032;49.484;11.112;2023-09-19T00:48:08;5.38;;;3.38;;
6007;SDS011;3032;49.484;11.112;2023-09-19T00:50:35;3.40;;;3.10;;
6007;SDS011;3032;49.484;11.112;2023-09-19T00:53:01;5.68;;;3.13;;
6007;SDS011;3032;49.484;11.112;2023-09-19T00:55:34;3.45;;;3.15;;
6007;SDS011;3032;49.484;11.112;2023-09-19T00:58:02;10.77;;;3.70;;
6007;SDS011;3032;49.484;11.112;2023-09-19T01:00:30;3.55;;;3.08;;
6007;SDS011;3032;49.484;11.112;2023-09-19T01:02:58;3.13;;;2.83;;
6007;SDS011;3032;49.484;11.112;2023-09-19T01:05:26;8.50;;;3.90;;
6007;SDS011;3032;49.484;11.112;2023-09-19T01:07:52;5.15;;;3.25;;
6007;SDS011;3032;49.484;11.112;2023-09-19T01:10:18;3.83;;;3.50;;
6007;SDS011;3032;49.484;11.112;2023-09-19T01:12:48;3.80;;;3.45;;
6007;SDS011;3032;49.484;11.112;2023-09-19T01:23:41;2.80;;;2.60;;
6007;SDS011;3032;49.484;11.112;2023-09-19T01:31:54;3.88;;;2.45;;
6007;SDS011;3032;49.484;11.112;2023-09-19T01:34:26;3.10;;;2.80;;
6007;SDS011;3032;49.484;11.112;2023-09-19T01:36:52;4.30;;;3.90;;
6007;SDS011;3032;49.484;11.112;2023-09-19T01:39:17;11.47;;;2.50;;
6007;SDS011;3032;49.484;11.112;2023-09-19T01:44:11;10.30;;;2.50;;
6007;SDS011;3032;49.484;11.112;2023-09-19T01:46:47;3.42;;;2.53;;
6007;SDS011;3032;49.484;11.112;2023-09-19T01:49:18;2.70;;;2.50;;
6007;SDS011;3032;49.484;11.112;2023-09-19T01:54:51;3.88;;;2.60;;
6007;SDS011;3032;49.484;11.112;2023-09-19T01:57:20;4.47;;;2.70;;
6007;SDS011;3032;49.484;11.112;2023-09-19T02:00:01;5.13;;;2.60;;
6007;SDS011;3032;49.484;11.112;2023-09-19T02:02:34;6.53;;;2.30;;
6007;SDS011;3032;49.484;11.112;2023-09-19T02:05:04;8.30;;;3.17;;
6007;SDS011;3032;49.484;11.112;2023-09-19T02:07:31;3.35;;;2.67;;
6007;SDS011;3032;49.484;11.112;2023-09-19T02:10:00;2.55;;;2.08;;
6007;SDS011;3032;49.484;11.112;2023-09-19T02:12:26;3.38;;;2.55;;
6007;SDS011;3032;49.484;11.112;2023-09-19T02:14:52;3.60;;;2.15;;
6007;SDS011;3032;49.484;11.112;2023-09-19T02:17:18;3.03;;;2.30;;
6007;SDS011;3032;49.484;11.112;2023-09-19T02:19:44;2.10;;;2.00;;
6007;SDS011;3032;49.484;11.112;2023-09-19T02:22:09;2.03;;;1.93;;
6007;SDS011;3032;49.484;11.112;2023-09-19T02:24:36;2.20;;;2.00;;
6007;SDS011;3032;49.484;11.112;2023-09-19T02:27:03;1.90;;;1.80;;
6007;SDS011;3032;49.484;11.112;2023-09-19T02:29:31;2.15;;;1.90;;
6007;SDS011;3032;49.484;11.112;2023-09-19T02:31:57;2.28;;;2.08;;
6007;SDS011;3032;49.484;11.112;2023-09-19T02:34:22;5.40;;;1.87;;
6007;SDS011;3032;49.484;11.112;2023-09-19T02:36:48;1.90;;;1.80;;
6007;SDS011;3032;49.484;11.112;2023-09-19T02:39:14;4.03;;;2.00;;
6007;SDS011;3032;49.484;11.112;2023-09-19T02:41:39;2.07;;;1.70;;
6007;SDS011;3032;49.484;11.112;2023-09-19T02:44:06;2.67;;;1.85;;
6007;SDS011;3032;49.484;11.112;2023-09-19T02:46:33;4.60;;;2.22;;
6007;SDS011;3032;49.484;11.112;2023-09-19T02:49:01;2.38;;;1.70;;
6007;SDS011;3032;49.484;11.112;2023-09-19T02:51:28;2.50;;;1.92;;
6007;SDS011;3032;49.484;11.112;2023-09-19T02:53:54;1.80;;;1.70;;
6007;SDS011;3032;49.484;11.112;2023-09-19T02:56:19;1.93;;;1.83;;
6007;SDS011;3032;49.484;11.112;2023-09-19T02:58:45;2.03;;;1.87;;
6007;SDS011;3032;49.484;11.112;2023-09-19T03:01:10;1.83;;;1.73;;
6007;SDS011;3032;49.484;11.112;2023-09-19T03:03:37;2.20;;;2.10;;
6007;SDS011;3032;49.484;11.112;2023-09-19T03:06:07;1.95;;;1.80;;
6007;SDS011;3032;49.484;11.112;2023-09-19T03:11:18;6.70;;;2.13;;
6007;SDS011;3032;49.484;11.112;2023-09-19T03:13:50;2.53;;;1.88;;
6007;SDS011;3032;49.484;11.112;2023-09-19T03:16:19;1.95;;;1.65;;
6007;SDS011;3032;49.484;11.112;2023-09-19T03:18:46;8.18;;;2.25;;
6007;SDS011;3032;49.484;11.112;2023-09-19T03:21:13;1.75;;;1.65;;
6007;SDS011;3032;49.484;11.112;2023-09-19T03:23:40;2.85;;;1.70;;
6007;SDS011;3032;49.484;11.112;2023-09-19T03:26:06;2.23;;;2.00;;
6007;SDS011;3032;49.484;11.112;2023-09-19T03:28:33;2.03;;;1.60;;
6007;SDS011;3032;49.484;11.112;2023-09-19T03:31:02;2.08;;;1.98;;
6007;SDS011;3032;49.484;11.112;2023-09-19T03:33:29;1.98;;;1.80;;
6007;SDS011;3032;49.484;11.112;2023-09-19T03:35:56;2.53;;;1.73;;
6007;SDS011;3032;49.484;11.112;2023-09-19T03:38:24;6.00;;;1.90;;
6007;SDS011;3032;49.484;11.112;2023-09-19T03:40:55;5.88;;;2.08;;
6007;SDS011;3032;49.484;11.112;2023-09-19T03:43:22;3.40;;;2.00;;
6007;SDS011;3032;49.484;11.112;2023-09-19T03:45:48;3.30;;;1.80;;
6007;SDS011;3032;49.484;11.112;2023-09-19T03:48:14;2.13;;;2.03;;
6007;SDS011;3032;49.484;11.112;2023-09-19T03:50:40;2.30;;;1.87;;
6007;SDS011;3032;49.484;11.112;2023-09-19T03:53:05;3.50;;;2.13;;
6007;SDS011;3032;49.484;11.112;2023-09-19T03:55:32;1.90;;;1.80;;
6007;SDS011;3032;49.484;11.112;2023-09-19T03:58:00;5.32;;;2.25;;
6007;SDS011;3032;49.484;11.112;2023-09-19T04:00:29;3.25;;;2.10;;
6007;SDS011;3032;49.484;11.112;2023-09-19T04:02:55;3.07;;;2.77;;
6007;SDS011;3032;49.484;11.112;2023-09-19T04:05:22;4.10;;;2.10;;
6007;SDS011;3032;49.484;11.112;2023-09-19T04:07:49;2.28;;;2.13;;
6007;SDS011;3032;49.484;11.112;2023-09-19T04:10:15;1.90;;;1.80;;
6007;SDS011;3032;49.484;11.112;2023-09-19T04:12:41;4.63;;;2.60;;
6007;SDS011;3032;49.484;11.112;2023-09-19T04:15:19;3.38;;;2.53;;
6007;SDS011;3032;49.484;11.112;2023-09-19T04:17:47;5.18;;;2.25;;
6007;SDS011;3032;49.484;11.112;2023-09-19T04:20:12;5.10;;;2.53;;
6007;SDS011;3032;49.484;11.112;2023-09-19T04:22:38;3.50;;;2.73;;
6007;SDS011;3032;49.484;11.112;2023-09-19T04:25:04;5.70;;;2.07;;
6007;SDS011;3032;49.484;11.112;2023-09-19T04:27:31;2.70;;;2.50;;
6007;SDS011;3032;49.484;11.112;2023-09-19T04:29:57;3.57;;;2.30;;
6007;SDS011;3032;49.484;11.112;2023-09-19T04:32:24;2.63;;;2.42;;
6007;SDS011;3032;49.484;11.112;2023-09-19T04:34:53;5.78;;;2.40;;
6007;SDS011;3032;49.484;11.112;2023-09-19T04:37:19;4.40;;;2.20;;
6007;SDS011;3032;49.484;11.112;2023-09-19T04:39:44;8.50;;;2.23;;
6007;SDS011;3032;49.484;11.112;2023-09-19T04:42:12;2.38;;;1.80;;
6007;SDS011;3032;49.484;11.112;2023-09-19T04:44:39;2.20;;;2.00;;
6007;SDS011;3032;49.484;11.112;2023-09-19T04:47:05;2.97;;;2.00;;
6007;SDS011;3032;49.484;11.112;2023-09-19T04:49:31;8.30;;;2.85;;
6007;SDS011;3032;49.484;11.112;2023-09-19T04:51:58;2.73;;;2.40;;
6007;SDS011;3032;49.484;11.112;2023-09-19T04:54:24;4.43;;;2.22;;
6007;SDS011;3032;49.484;11.112;2023-09-19T04:56:50;4.97;;;2.07;;
6007;SDS011;3032;49.484;11.112;2023-09-19T04:59:15;2.20;;;1.90;;
6007;SDS011;3032;49.484;11.112;2023-09-19T05:01:42;2.23;;;1.60;;
6007;SDS011;3032;49.484;11.112;2023-09-19T05:04:07;2.78;;;1.80;;
6007;SDS011;3032;49.484;11.112;2023-09-19T05:06:33;2.90;;;2.10;;
6007;SDS011;3032;49.484;11.112;2023-09-19T05:08:59;1.77;;;1.63;;
6007;SDS011;3032;49.484;11.112;2023-09-19T05:11:25;3.10;;;1.85;;
6007;SDS011;3032;49.484;11.112;2023-09-19T05:13:51;3.15;;;2.30;;
6007;SDS011;3032;49.484;11.112;2023-09-19T05:16:18;2.65;;;2.10;;
6007;SDS011;3032;49.484;11.112;2023-09-19T05:18:43;1.75;;;1.65;;
6007;SDS011;3032;49.484;11.112;2023-09-19T05:21:09;6.30;;;2.00;;
6007;SDS011;3032;49.484;11.112;2023-09-19T05:23:35;1.97;;;1.87;;
6007;SDS011;3032;49.484;11.112;2023-09-19T05:26:02;2.22;;;2.10;;
6007;SDS011;3032;49.484;11.112;2023-09-19T05:28:28;2.05;;;1.85;;
6007;SDS011;3032;49.484;11.112;2023-09-19T05:30:54;4.90;;;2.10;;
6007;SDS011;3032;49.484;11.112;2023-09-19T05:33:20;5.93;;;2.13;;
6007;SDS011;3032;49.484;11.112;2023-09-19T05:35:47;3.80;;;1.70;;
6007;SDS011;3032;49.484;11.112;2023-09-19T05:38:13;1.70;;;1.60;;
6007;SDS011;3032;49.484;11.112;2023-09-19T05:40:44;5.90;;;2.13;;
6007;SDS011;3032;49.484;11.112;2023-09-19T05:43:10;5.93;;;1.63;;
6007;SDS011;3032;49.484;11.112;2023-09-19T05:45:35;2.60;;;2.37;;
6007;SDS011;3032;49.484;11.112;2023-09-19T05:48:12;1.85;;;1.75;;
6007;SDS011;3032;49.484;11.112;2023-09-19T05:50:40;1.65;;;1.52;;
6007;SDS011;3032;49.484;11.112;2023-09-19T05:53:09;3.58;;;2.13;;
6007;SDS011;3032;49.484;11.112;2023-09-19T05:55:39;2.35;;;1.73;;
6007;SDS011;3032;49.484;11.112;2023-09-19T05:58:05;2.57;;;2.20;;
6007;SDS011;3032;49.484;11.112;2023-09-19T06:00:32;1.97;;;1.87;;
6007;SDS011;3032;49.484;11.112;2023-09-19T06:02:58;5.78;;;2.15;;
6007;SDS011;3032;49.484;11.112;2023-09-19T06:05:25;2.63;;;2.05;;
6007;SDS011;3032;49.484;11.112;2023-09-19T06:07:56;5.68;;;2.05;;
6007;SDS011;3032;49.484;11.112;2023-09-19T06:10:25;3.58;;;2.15;;
6007;SDS011;3032;49.484;11.112;2023-09-19T06:12:53;2.92;;;2.17;;
6007;SDS011;3032;49.484;11.112;2023-09-19T06:15:20;3.35;;;1.98;;
6007;SDS011;3032;49.484;11.112;2023-09-19T06:17:48;3.00;;;2.20;;
6007;SDS011;3032;49.484;11.112;2023-09-19T06:20:15;5.13;;;2.10;;
6007;SDS011;3032;49.484;11.112;2023-09-19T06:22:42;2.03;;;1.90;;
6007;SDS011;3032;49.484;11.112;2023-09-19T06:25:11;3.58;;;2.33;;
6007;SDS011;3032;49.484;11.112;2023-09-19T06:27:44;4.30;;;2.10;;
6007;SDS011;3032;49.484;11.112;2023-09-19T06:30:10;1.90;;;1.80;;
6007;SDS011;3032;49.484;11.112;2023-09-19T06:32:40;2.20;;;2.10;;
6007;SDS011;3032;49.484;11.112;2023-09-19T06:35:09;3.63;;;2.08;;
6007;SDS011;3032;49.484;11.112;2023-09-19T06:37:36;3.50;;;2.10;;
6007;SDS011;3032;49.484;11.112;2023-09-19T06:40:09;2.75;;;2.08;;
6007;SDS011;3032;49.484;11.112;2023-09-19T06:43:00;3.60;;;1.80;;
6007;SDS011;3032;49.484;11.112;2023-09-19T06:45:27;1.73;;;1.52;;
6007;SDS011;3032;49.484;11.112;2023-09-19T06:47:53;7.73;;;1.73;;
6007;SDS011;3032;49.484;11.112;2023-09-19T06:50:22;3.03;;;1.90;;
6007;SDS011;3032;49.484;11.112;2023-09-19T06:52:49;3.00;;;1.60;;
6007;SDS011;3032;49.484;11.112;2023-09-19T06:55:17;1.67;;;1.58;;
6007;SDS011;3032;49.484;11.112;2023-09-19T06:57:44;2.58;;;1.48;;
6007;SDS011;3032;49.484;11.112;2023-09-19T07:00:11;3.40;;;1.88;;
6007;SDS011;3032;49.484;11.112;2023-09-19T07:02:44;1.65;;;1.55;;
6007;SDS011;3032;49.484;11.112;2023-09-19T07:05:09;1.75;;;1.50;;
6007;SDS011;3032;49.484;11.112;2023-09-19T07:07:35;1.30;;;1.20;;
6007;SDS011;3032;49.484;11.112;2023-09-19T07:10:01;1.30;;;1.20;;
6007;SDS011;3032;49.484;11.112;2023-09-19T07:12:30;1.20;;;1.20;;
6007;SDS011;3032;49.484;11.112;2023-09-19T07:14:56;1.98;;;1.30;;
6007;SDS011;3032;49.484;11.112;2023-09-19T07:17:22;1.30;;;1.17;;
6007;SDS011;3032;49.484;11.112;2023-09-19T07:19:48;1.98;;;1.58;;
6007;SDS011;3032;49.484;11.112;2023-09-19T07:22:15;1.63;;;1.13;;
6007;SDS011;3032;49.484;11.112;2023-09-19T07:24:41;1.67;;;1.10;;
6007;SDS011;3032;49.484;11.112;2023-09-19T07:27:06;1.87;;;1.30;;
6007;SDS011;3032;49.484;11.112;2023-09-19T07:29:32;1.67;;;1.57;;
6007;SDS011;3032;49.484;11.112;2023-09-19T07:31:57;2.33;;;1.60;;
6007;SDS011;3032;49.484;11.112;2023-09-19T07:34:23;1.37;;;1.27;;
6007;SDS011;3032;49.484;11.112;2023-09-19T07:36:49;1.45;;;1.30;;
6007;SDS011;3032;49.484;11.112;2023-09-19T07:39:15;5.97;;;1.50;;
6007;SDS011;3032;49.484;11.112;2023-09-19T07:41:41;3.63;;;1.40;;
6007;SDS011;3032;49.484;11.112;2023-09-19T07:44:07;2.30;;;1.60;;
6007;SDS011;3032;49.484;11.112;2023-09-19T07:46:34;3.97;;;1.65;;
6007;SDS011;3032;49.484;11.112;2023-09-19T07:49:00;1.80;;;1.30;;
6007;SDS011;3032;49.484;11.112;2023-09-19T07:51:26;2.33;;;1.60;;
6007;SDS011;3032;49.484;11.112;2023-09-19T07:53:52;3.20;;;2.00;;
6007;SDS011;3032;49.484;11.112;2023-09-19T07:56:17;4.10;;;1.93;;
6007;SDS011;3032;49.484;11.112;2023-09-19T07:58:45;3.40;;;1.77;;
6007;SDS011;3032;49.484;11.112;2023-09-19T08:01:10;3.63;;;1.93;;
6007;SDS011;3032;49.484;11.112;2023-09-19T08:03:37;2.05;;;1.85;;
6007;SDS011;3032;49.484;11.112;2023-09-19T08:06:05;1.70;;;1.60;;
6007;SDS011;3032;49.484;11.112;2023-09-19T08:08:32;3.42;;;2.35;;
6007;SDS011;3032;49.484;11.112;2023-09-19T08:11:02;2.40;;;1.52;;
6007;SDS011;3032;49.484;11.112;2023-09-19T08:13:40;4.63;;;1.90;;
6007;SDS011;3032;49.484;11.112;2023-09-19T08:16:11;2.40;;;1.70;;
6007;SDS011;3032;49.484;11.112;2023-09-19T08:18:38;2.17;;;1.75;;
6007;SDS011;3032;49.484;11.112;2023-09-19T08:21:07;3.28;;;1.70;;
6007;SDS011;3032;49.484;11.112;2023-09-19T08:23:36;3.65;;;1.85;;
6007;SDS011;3032;49.484;11.112;2023-09-19T08:26:03;2.90;;;1.92;;
6007;SDS011;3032;49.484;11.112;2023-09-19T08:28:31;1.90;;;1.70;;
6007;SDS011;3032;49.484;11.112;2023-09-19T08:31:01;3.05;;;1.70;;
6007;SDS011;3032;49.484;11.112;2023-09-19T08:33:29;2.53;;;1.67;;
6007;SDS011;3032;49.484;11.112;2023-09-19T08:35:56;3.92;;;2.25;;
6007;SDS011;3032;49.484;11.112;2023-09-19T08:38:22;1.73;;;1.30;;
6007;SDS011;3032;49.484;11.112;2023-09-19T08:40:47;2.87;;;1.40;;
6007;SDS011;3032;49.484;11.112;2023-09-19T08:43:13;1.60;;;1.50;;
6007;SDS011;3032;49.484;11.112;2023-09-19T08:45:39;3.70;;;1.43;;
6007;SDS011;3032;49.484;11.112;2023-09-19T08:48:11;2.13;;;1.50;;
6007;SDS011;3032;49.484;11.112;2023-09-19T08:53:47;2.95;;;1.25;;
6007;SDS011;3032;49.484;11.112;2023-09-19T08:56:38;1.77;;;1.40;;
6007;SDS011;3032;49.484;11.112;2023-09-19T08:59:07;4.68;;;1.60;;
6007;SDS011;3032;49.484;11.112;2023-09-19T09:01:33;1.53;;;1.27;;
6007;SDS011;3032;49.484;11.112;2023-09-19T09:04:00;3.15;;;1.45;;
6007;SDS011;3032;49.484;11.112;2023-09-19T09:06:27;1.50;;;1.40;;
6007;SDS011;3032;49.484;11.112;2023-09-19T09:08:54;2.83;;;1.60;;
6007;SDS011;3032;49.484;11.112;2023-09-19T09:11:20;1.27;;;1.17;;
6007;SDS011;3032;49.484;11.112;2023-09-19T09:13:46;5.43;;;1.50;;
6007;SDS011;3032;49.484;11.112;2023-09-19T09:16:12;1.73;;;1.60;;
6007;SDS011;3032;49.484;11.112;2023-09-19T09:18:39;2.85;;;1.50;;
6007;SDS011;3032;49.484;11.112;2023-09-19T09:21:05;1.30;;;1.20;;
6007;SDS011;3032;49.484;11.112;2023-09-19T09:23:31;2.20;;;1.17;;
6007;SDS011;3032;49.484;11.112;2023-09-19T09:25:57;3.10;;;1.67;;
6007;SDS011;3032;49.484;11.112;2023-09-19T09:28:31;2.08;;;1.70;;
6007;SDS011;3032;49.484;11.112;2023-09-19T09:31:04;1.98;;;1.67;;
6007;SDS011;3032;49.484;11.112;2023-09-19T09:33:35;2.00;;;1.88;;
6007;SDS011;3032;49.484;11.112;2023-09-19T09:36:06;1.40;;;1.30;;
6007;SDS011;3032;49.484;11.112;2023-09-19T09:38:43;1.52;;;1.13;;
6007;SDS011;3032;49.484;11.112;2023-09-19T09:41:11;1.60;;;1.50;;
6007;SDS011;3032;49.484;11.112;2023-09-19T09:43:41;1.25;;;1.15;;
6007;SDS011;3032;49.484;11.112;2023-09-19T09:46:19;1.50;;;1.23;;
6007;SDS011;3032;49.484;11.112;2023-09-19T09:57:32;5.60;;;1.45;;
6007;SDS011;3032;49.484;11.112;2023-09-19T09:59:59;1.30;;;1.20;;
6007;SDS011;3032;49.484;11.112;2023-09-19T10:02:35;1.50;;;1.23;;
6007;SDS011;3032;49.484;11.112;2023-09-19T10:05:15;2.45;;;1.33;;
6007;SDS011;3032;49.484;11.112;2023-09-19T10:07:45;2.05;;;1.30;;
6007;SDS011;3032;49.484;11.112;2023-09-19T10:10:33;1.80;;;1.38;;
6007;SDS011;3032;49.484;11.112;2023-09-19T10:13:06;1.88;;;1.20;;
6007;SDS011;3032;49.484;11.112;2023-09-19T10:15:33;1.45;;;1.35;;
6007;SDS011;3032;49.484;11.112;2023-09-19T10:18:02;1.75;;;1.55;;
6007;SDS011;3032;49.484;11.112;2023-09-19T10:20:33;3.50;;;1.42;;
6007;SDS011;3032;49.484;11.112;2023-09-19T10:23:04;2.58;;;1.80;;
6007;SDS011;3032;49.484;11.112;2023-09-19T10:25:37;1.10;;;1.00;;
6007;SDS011;3032;49.484;11.112;2023-09-19T10:28:09;2.78;;;1.33;;
6007;SDS011;3032;49.484;11.112;2023-09-19T10:30:44;3.72;;;1.42;;
6007;SDS011;3032;49.484;11.112;2023-09-19T10:35:50;4.70;;;1.80;;
6007;SDS011;3032;49.484;11.112;2023-09-19T10:38:19;2.88;;;2.00;;
6007;SDS011;3032;49.484;11.112;2023-09-19T10:40:51;2.13;;;1.70;;
6007;SDS011;3032;49.484;11.112;2023-09-19T10:43:19;2.28;;;1.40;;
6007;SDS011;3032;49.484;11.112;2023-09-19T10:45:47;1.77;;;1.67;;
6007;SDS011;3032;49.484;11.112;2023-09-19T10:48:15;1.83;;;1.73;;
6007;SDS011;3032;49.484;11.112;2023-09-19T10:50:51;2.35;;;1.60;;
6007;SDS011;3032;49.484;11.112;2023-09-19T10:53:24;2.22;;;1.70;;
6007;SDS011;3032;49.484;11.112;2023-09-19T10:55:52;2.42;;;1.70;;
6007;SDS011;3032;49.484;11.112;2023-09-19T10:58:29;1.92;;;1.40;;
6007;SDS011;3032;49.484;11.112;2023-09-19T11:00:59;1.80;;;1.70;;
6007;SDS011;3032;49.484;11.112;2023-09-19T11:03:37;3.05;;;1.88;;
6007;SDS011;3032;49.484;11.112;2023-09-19T11:06:17;2.58;;;1.60;;
6007;SDS011;3032;49.484;11.112;2023-09-19T11:08:57;2.22;;;1.70;;
6007;SDS011;3032;49.484;11.112;2023-09-19T11:11:47;1.75;;;1.58;;
6007;SDS011;3032;49.484;11.112;2023-09-19T11:30:32;2.17;;;1.70;;
6007;SDS011;3032;49.484;11.112;2023-09-19T11:44:31;21.08;;;3.50;;
6007;SDS011;3032;49.484;11.112;2023-09-19T11:49:17;11.68;;;2.90;;
6007;SDS011;3032;49.484;11.112;2023-09-19T11:51:48;4.38;;;2.05;;
6007;SDS011;3032;49.484;11.112;2023-09-19T11:54:19;3.47;;;1.45;;
6007;SDS011;3032;49.484;11.112;2023-09-19T11:56:49;1.90;;;1.10;;
6007;SDS011;3032;49.484;11.112;2023-09-19T11:59:21;3.45;;;1.50;;
6007;SDS011;3032;49.484;11.112;2023-09-19T12:01:51;1.95;;;1.48;;
6007;SDS011;3032;49.484;11.112;2023-09-19T12:04:44;2.70;;;1.50;;
6007;SDS011;3032;49.484;11.112;2023-09-19T12:07:11;4.25;;;1.30;;
6007;SDS011;3032;49.484;11.112;2023-09-19T12:09:41;2.58;;;1.50;;
6007;SDS011;3032;49.484;11.112;2023-09-19T12:12:25;1.85;;;1.20;;
6007;SDS011;3032;49.484;11.112;2023-09-19T12:14:52;8.82;;;2.00;;
6007;SDS011;3032;49.484;11.112;2023-09-19T12:17:19;3.67;;;1.63;;
6007;SDS011;3032;49.484;11.112;2023-09-19T12:19:52;5.72;;;2.10;;
6007;SDS011;3032;49.484;11.112;2023-09-19T12:22:19;1.35;;;1.25;;
6007;SDS011;3032;49.484;11.112;2023-09-19T12:24:48;2.83;;;1.45;;
6007;SDS011;3032;49.484;11.112;2023-09-19T12:27:15;4.20;;;1.33;;
6007;SDS011;3032;49.484;11.112;2023-09-19T12:29:48;1.57;;;1.47;;
6007;SDS011;3032;49.484;11.112;2023-09-19T12:32:14;1.50;;;1.40;;
6007;SDS011;3032;49.484;11.112;2023-09-19T12:34:52;5.47;;;1.10;;
6007;SDS011;3032;49.484;11.112;2023-09-19T12:37:19;1.92;;;1.30;;
6007;SDS011;3032;49.484;11.112;2023-09-19T12:39:47;5.95;;;1.20;;
6007;SDS011;3032;49.484;11.112;2023-09-19T12:42:21;1.20;;;1.20;;
6007;SDS011;3032;49.484;11.112;2023-09-19T12:44:51;1.52;;;1.30;;
6007;SDS011;3032;49.484;11.112;2023-09-19T12:47:21;3.45;;;1.50;;
6007;SDS011;3032;49.484;11.112;2023-09-19T12:52:47;3.90;;;1.73;;
6007;SDS011;3032;49.484;11.112;2023-09-19T12:55:20;1.58;;;1.30;;
6007;SDS011;3032;49.484;11.112;2023-09-19T13:00:36;1.90;;;1.40;;
6007;SDS011;3032;49.484;11.112;2023-09-19T13:05:51;2.28;;;1.50;;
6007;SDS011;3032;49.484;11.112;2023-09-19T13:08:21;2.13;;;1.42;;
6007;SDS011;3032;49.484;11.112;2023-09-19T13:11:05;12.48;;;3.60;;
6007;SDS011;3032;49.484;11.112;2023-09-19T13:13:43;2.72;;;1.65;;
6007;SDS011;3032;49.484;11.112;2023-09-19T13:16:29;2.13;;;1.38;;
6007;SDS011;3032;49.484;11.112;2023-09-19T13:18:55;2.50;;;1.30;;
6007;SDS011;3032;49.484;11.112;2023-09-19T13:21:27;2.08;;;1.40;;
6007;SDS011;3032;49.484;11.112;2023-09-19T13:23:54;2.42;;;1.55;;
6007;SDS011;3032;49.484;11.112;2023-09-19T13:26:24;4.75;;;1.40;;
6007;SDS011;3032;49.484;11.112;2023-09-19T13:28:50;2.75;;;1.90;;
6007;SDS011;3032;49.484;11.112;2023-09-19T13:31:16;1.53;;;1.43;;
6007;SDS011;3032;49.484;11.112;2023-09-19T13:33:48;2.90;;;1.40;;
6007;SDS011;3032;49.484;11.112;2023-09-19T13:36:15;3.55;;;1.83;;
6007;SDS011;3032;49.484;11.112;2023-09-19T13:38:41;3.43;;;1.50;;
6007;SDS011;3032;49.484;11.112;2023-09-19T13:41:09;1.65;;;1.40;;
6007;SDS011;3032;49.484;11.112;2023-09-19T13:43:36;1.63;;;1.40;;
6007;SDS011;3032;49.484;11.112;2023-09-19T13:46:02;4.38;;;1.50;;
6007;SDS011;3032;49.484;11.112;2023-09-19T13:48:28;1.63;;;1.53;;
6007;SDS011;3032;49.484;11.112;2023-09-19T13:50:54;2.70;;;1.52;;
6007;SDS011;3032;49.484;11.112;2023-09-19T13:53:20;2.13;;;1.60;;
6007;SDS011;3032;49.484;11.112;2023-09-19T13:55:46;1.97;;;1.40;;
6007;SDS011;3032;49.484;11.112;2023-09-19T13:58:13;2.42;;;1.40;;
6007;SDS011;3032;49.484;11.112;2023-09-19T14:00:39;1.73;;;1.40;;
6007;SDS011;3032;49.484;11.112;2023-09-19T14:03:05;2.40;;;1.50;;
6007;SDS011;3032;49.484;11.112;2023-09-19T14:05:32;7.63;;;1.52;;
6007;SDS011;3032;49.484;11.112;2023-09-19T14:07:58;3.63;;;1.43;;
6007;SDS011;3032;49.484;11.112;2023-09-19T14:10:24;2.28;;;1.60;;
6007;SDS011;3032;49.484;11.112;2023-09-19T14:12:52;1.60;;;1.50;;
6007;SDS011;3032;49.484;11.112;2023-09-19T14:15:17;1.50;;;1.40;;
6007;SDS011;3032;49.484;11.112;2023-09-19T14:17:43;2.17;;;1.30;;
6007;SDS011;3032;49.484;11.112;2023-09-19T14:20:11;2.80;;;1.90;;
6007;SDS011;3032;49.484;11.112;2023-09-19T14:22:37;3.33;;;1.40;;
6007;SDS011;3032;49.484;11.112;2023-09-19T14:25:04;1.77;;;1.50;;
6007;SDS011;3032;49.484;11.112;2023-09-19T14:27:30;4.15;;;1.67;;
6007;SDS011;3032;49.484;11.112;2023-09-19T14:29:55;6.23;;;1.60;;
6007;SDS011;3032;49.484;11.112;2023-09-19T14:32:22;3.88;;;1.60;;
6007;SDS011;3032;49.484;11.112;2023-09-19T14:34:48;2.78;;;1.48;;
6007;SDS011;3032;49.484;11.112;2023-09-19T14:37:14;2.80;;;1.40;;
6007;SDS011;3032;49.484;11.112;2023-09-19T14:39:41;7.07;;;1.40;;
6007;SDS011;3032;49.484;11.112;2023-09-19T14:42:10;2.00;;;1.50;;
6007;SDS011;3032;49.484;11.112;2023-09-19T14:44:36;1.80;;;1.50;;
6007;SDS011;3032;49.484;11.112;2023-09-19T14:47:05;4.85;;;1.42;;
6007;SDS011;3032;49.484;11.112;2023-09-19T14:49:35;1.67;;;1.40;;
6007;SDS011;3032;49.484;11.112;2023-09-19T14:52:05;2.53;;;1.30;;
6007;SDS011;3032;49.484;11.112;2023-09-19T14:54:34;1.55;;;1.20;;
6007;SDS011;3032;49.484;11.112;2023-09-19T14:57:02;3.55;;;1.63;;
6007;SDS011;3032;49.484;11.112;2023-09-19T14:59:33;3.53;;;1.75;;
6007;SDS011;3032;49.484;11.112;2023-09-19T15:02:02;1.95;;;1.50;;
6007;SDS011;3032;49.484;11.112;2023-09-19T15:04:31;1.30;;;1.20;;
6007;SDS011;3032;49.484;11.112;2023-09-19T15:06:58;2.55;;;1.63;;
6007;SDS011;3032;49.484;11.112;2023-09-19T15:09:24;1.90;;;1.45;;
6007;SDS011;3032;49.484;11.112;2023-09-19T15:11:54;2.38;;;1.45;;
6007;SDS011;3032;49.484;11.112;2023-09-19T15:14:21;3.88;;;1.50;;
6007;SDS011;3032;49.484;11.112;2023-09-19T15:16:47;2.78;;;1.77;;
6007;SDS011;3032;49.484;11.112;2023-09-19T15:19:13;1.80;;;1.50;;
6007;SDS011;3032;49.484;11.112;2023-09-19T15:21:40;1.92;;;1.60;;
6007;SDS011;3032;49.484;11.112;2023-09-19T15:24:06;3.80;;;1.40;;
6007;SDS011;3032;49.484;11.112;2023-09-19T15:26:35;1.55;;;1.40;;
6007;SDS011;3032;49.484;11.112;2023-09-19T15:29:05;2.10;;;1.50;;
6007;SDS011;3032;49.484;11.112;2023-09-19T15:31:31;1.67;;;1.35;;
6007;SDS011;3032;49.484;11.112;2023-09-19T15:33:57;2.13;;;1.30;;
6007;SDS011;3032;49.484;11.112;2023-09-19T15:36:22;3.67;;;1.50;;
6007;SDS011;3032;49.484;11.112;2023-09-19T15:39:04;2.33;;;1.30;;
6007;SDS011;3032;49.484;11.112;2023-09-19T15:41:38;1.60;;;1.48;;
6007;SDS011;3032;49.484;11.112;2023-09-19T15:44:12;2.58;;;1.10;;
6007;SDS011;3032;49.484;11.112;2023-09-19T15:46:39;2.33;;;1.58;;
6007;SDS011;3032;49.484;11.112;2023-09-19T15:49:05;1.92;;;1.52;;
6007;SDS011;3032;49.484;11.112;2023-09-19T15:51:32;3.53;;;1.33;;
6007;SDS011;3032;49.484;11.112;2023-09-19T15:53:58;2.28;;;1.38;;
6007;SDS011;3032;49.484;11.112;2023-09-19T15:56:27;1.95;;;1.42;;
6007;SDS011;3032;49.484;11.112;2023-09-19T15:58:54;1.53;;;1.30;;
6007;SDS011;3032;49.484;11.112;2023-09-19T16:01:20;2.65;;;1.30;;
6007;SDS011;3032;49.484;11.112;2023-09-19T16:03:47;5.18;;;1.30;;
6007;SDS011;3032;49.484;11.112;2023-09-19T16:06:15;3.17;;;1.60;;
6007;SDS011;3032;49.484;11.112;2023-09-19T16:08:48;1.77;;;1.33;;
6007;SDS011;3032;49.484;11.112;2023-09-19T16:11:20;1.95;;;1.60;;
6007;SDS011;3032;49.484;11.112;2023-09-19T16:13:47;1.90;;;1.25;;
6007;SDS011;3032;49.484;11.112;2023-09-19T16:16:14;3.13;;;1.45;;
6007;SDS011;3032;49.484;11.112;2023-09-19T16:18:57;1.50;;;1.40;;
6007;SDS011;3032;49.484;11.112;2023-09-19T16:21:29;1.70;;;1.40;;
6007;SDS011;3032;49.484;11.112;2023-09-19T16:23:56;1.42;;;1.30;;
6007;SDS011;3032;49.484;11.112;2023-09-19T16:26:23;3.15;;;1.45;;